Time;durP1;ratioP1;P1;durP2;ratioP2;P2;SDS_P1;SDS_P2;PMS_P1;PMS_P2;Temp;Humidity;BMP_temperature;BMP_pressure;BME280_temperature;BME280_humidity;BME280_pressure;Samples;Min_cycle;Max_cycle;Signal;HPM_P1;HPM_P2
2023/05/13 07:23:24;;;;;;;14.52;13.15;;;;;;;-145.79;69.74;78045.00;5279290;28;20398;-78
2023/05/13 07:25:55;;;;;;;12.88;11.52;;;;;;;-145.79;72.25;78025.94;5273082;28;20039;-76
2023/05/13 07:28:27;;;;;;;14.25;12.65;;;;;;;-145.79;71.39;78034.41;5259541;28;20044;-78
2023/05/13 07:30:58;;;;;;;13.15;12.05;;;;;;;-145.79;70.46;78006.84;5259868;28;20045;-77
2023/05/13 07:33:30;;;;;;;14.85;13.45;;;;;;;-145.79;70.64;78002.63;5267416;28;20060;-77
2023/05/13 07:36:01;;;;;;;14.20;12.90;;;;;;;-145.79;70.08;78000.50;5275770;28;20025;-74
2023/05/13 07:38:33;;;;;;;13.43;12.07;;;;;;;-145.79;70.14;77981.41;5279691;28;20025;-77
2023/05/13 07:41:04;;;;;;;13.70;12.55;;;;;;;-145.79;69.35;77966.56;5263027;28;20029;-76
2023/05/13 07:43:36;;;;;;;15.93;11.88;;;;;;;-145.79;70.61;77945.38;5270193;28;20068;-76
2023/05/13 07:46:07;;;;;;;14.45;13.05;;;;;;;-145.79;69.40;77934.78;5282713;28;20150;-77
2023/05/13 07:48:39;;;;;;;13.23;11.88;;;;;;;-145.79;68.42;77919.94;5281795;28;20024;-75
2023/05/13 07:51:10;;;;;;;14.52;12.77;;;;;;;-145.79;69.50;77898.75;5281850;28;20028;-76
2023/05/13 07:53:41;;;;;;;14.55;11.07;;;;;;;-145.79;69.96;77888.13;5283922;28;20062;-76
2023/05/13 07:56:15;;;;;;;13.23;12.10;;;;;;;-145.79;68.19;77886.00;5286080;28;20029;-76
2023/05/13 07:58:48;;;;;;;14.10;12.68;;;;;;;-145.79;66.83;77883.91;5281400;28;20023;-76
2023/05/13 08:01:19;;;;;;;16.55;14.95;;;;;;;-145.79;66.01;77881.78;5261212;28;20047;-77
2023/05/13 08:03:50;;;;;;;14.50;12.98;;;;;;;-145.79;66.13;77858.47;5258890;28;20104;-76
2023/05/13 08:06:22;;;;;;;13.63;12.32;;;;;;;-145.79;65.00;77856.34;5258349;28;20047;-76
2023/05/13 08:08:53;;;;;;;12.07;10.98;;;;;;;-145.79;65.58;77826.66;5271926;28;20032;-76
2023/05/13 08:11:27;;;;;;;12.43;11.30;;;;;;;-145.79;64.78;77835.13;5278647;28;20094;-75
2023/05/13 08:13:58;;;;;;;11.75;10.65;;;;;;;-145.79;64.09;77828.78;5275538;28;20024;-74
2023/05/13 08:16:30;;;;;;;12.38;10.65;;;;;;;-145.79;64.23;77822.41;5274199;28;20103;-74
2023/05/13 08:19:02;;;;;;;12.45;11.25;;;;;;;-145.79;63.98;77809.69;5257545;28;20037;-73
2023/05/13 08:21:33;;;;;;;13.45;11.85;;;;;;;-145.79;63.68;77782.16;5258196;28;20124;-74
2023/05/13 08:24:05;;;;;;;12.45;11.00;;;;;;;-145.79;62.66;77777.91;5266463;28;20451;-72
2023/05/13 08:26:36;;;;;;;11.00;9.90;;;;;;;-145.79;63.07;77752.47;5274280;28;20025;-73
2023/05/13 08:29:12;;;;;;;12.25;11.15;;;;;;;-145.79;62.12;77750.34;5261583;28;20029;-73
2023/05/13 08:31:44;;;;;;;12.13;10.55;;;;;;;-145.79;61.59;77750.34;5276881;28;20395;-73
2023/05/13 08:34:15;;;;;;;11.77;10.77;;;;;;;-145.79;61.58;77748.22;5263603;28;20021;-73
2023/05/13 08:36:47;;;;;;;11.30;10.25;;;;;;;-145.79;61.97;77741.88;5263606;28;20025;-73
2023/05/13 08:39:18;;;;;;;11.63;10.73;;;;;;;-145.79;61.26;77741.88;5263921;28;20033;-72
2023/05/13 08:41:51;;;;;;;13.48;10.98;;;;;;;-145.79;61.79;77720.66;5263881;28;20025;-72
2023/05/13 08:44:28;;;;;;;12.65;11.23;;;;;;;-145.79;60.88;77722.78;5262896;28;20036;-73
2023/05/13 08:47:12;;;;;;;12.23;10.70;;;;;;;-145.79;61.12;77716.44;5263579;28;20025;-72
2023/05/13 08:49:45;;;;;;;12.25;11.10;;;;;;;-145.79;61.25;77703.72;5264723;28;20036;-72
2023/05/13 08:52:17;;;;;;;12.82;11.63;;;;;;;-145.79;61.01;77695.22;5246122;28;20025;-74
2023/05/13 08:54:49;;;;;;;12.13;11.02;;;;;;;-145.79;61.25;77682.50;5266708;28;20109;-72
2023/05/13 08:57:20;;;;;;;11.88;10.65;;;;;;;-145.79;60.82;77688.88;5264122;28;20054;-73
2023/05/13 08:59:52;;;;;;;13.02;11.43;;;;;;;-145.79;61.24;77671.91;5263862;28;20025;-74
2023/05/13 09:02:23;;;;;;;13.57;12.38;;;;;;;-145.79;61.11;77657.06;5263580;28;20033;-74
2023/05/13 09:04:59;;;;;;;15.15;13.60;;;;;;;-145.79;61.75;77635.88;5264644;28;20016;-73
2023/05/13 09:07:32;;;;;;;;;;;;;;;-145.79;60.69;77614.69;5263226;28;20107;-76
2023/05/13 09:10:05;;;;;;;12.30;10.98;;;;;;;-145.79;60.15;77612.56;5263490;28;19913;-76
2023/05/13 09:12:49;;;;;;;12.63;11.45;;;;;;;-145.79;59.71;77616.81;5263466;28;20040;-76
2023/05/13 09:15:27;;;;;;;11.95;10.73;;;;;;;-145.79;58.59;77606.19;5263248;28;20161;-74
2023/05/13 09:18:03;;;;;;;12.25;11.05;;;;;;;-145.79;57.86;77593.47;5263876;28;20546;-72
2023/05/13 09:20:35;;;;;;;12.65;11.27;;;;;;;-145.79;57.90;77601.97;5264020;28;20032;-73
2023/05/13 09:23:08;;;;;;;11.57;10.38;;;;;;;-145.79;57.30;77606.19;5263233;28;20053;-78
2023/05/13 09:25:40;;;;;;;13.25;12.15;;;;;;;-145.79;57.42;77595.59;5252727;28;20550;-79
2023/05/13 09:28:13;;;;;;;12.15;11.10;;;;;;;-145.79;57.15;77591.38;5262382;28;20025;-78
2023/05/13 09:30:53;;;;;;;13.32;11.93;;;;;;;-145.79;57.89;77572.28;5262254;28;20037;-77
2023/05/13 09:33:31;;;;;;;11.73;10.82;;;;;;;-145.79;57.36;77542.59;5264169;28;20028;-79
2023/05/13 09:36:04;;;;;;;12.48;11.23;;;;;;;-145.79;56.82;77540.50;5263347;28;20036;-80
2023/05/13 09:38:37;;;;;;;11.80;10.70;;;;;;;-145.79;55.65;77534.13;5263445;28;20020;-79
2023/05/13 09:41:09;;;;;;;14.40;13.13;;;;;;;-145.79;56.26;77521.41;5262852;28;20025;-79
2023/05/13 09:43:43;;;;;;;12.10;10.90;;;;;;;-145.79;56.34;77506.56;5260138;28;20078;-78
2023/05/13 09:46:15;;;;;;;11.40;10.03;;;;;;;-145.79;55.50;77485.38;5262946;28;20040;-79
2023/05/13 09:48:46;;;;;;;11.02;10.13;;;;;;;-145.79;55.26;77485.38;5262949;28;20487;-80
2023/05/13 09:51:18;;;;;;;11.30;10.40;;;;;;;-145.79;54.95;77470.53;5262539;28;20498;-76
2023/05/13 09:53:52;;;;;;;11.80;10.63;;;;;;;-145.79;54.24;77470.53;5264677;28;20037;-84
2023/05/13 09:56:23;;;;;;;11.87;10.77;;;;;;;-145.79;54.53;77451.47;5264149;28;20025;-78
2023/05/13 09:58:55;;;;;;;11.23;10.23;;;;;;;-145.79;54.43;77457.81;5255180;28;20059;-78
2023/05/13 10:01:27;;;;;;;10.77;9.77;;;;;;;-145.79;54.51;77423.91;5262422;28;20028;-76
2023/05/13 10:04:04;;;;;;;11.18;10.15;;;;;;;-145.79;54.76;77430.25;5262977;28;20077;-82
2023/05/13 10:06:36;;;;;;;12.20;10.02;;;;;;;-145.79;53.10;77423.91;5263042;28;20025;-84
2023/05/13 10:09:09;;;;;;;10.80;9.80;;;;;;;-145.79;53.69;77404.84;5264748;28;20035;-85
2023/05/13 10:11:45;;;;;;;10.30;9.40;;;;;;;-145.79;52.24;77409.06;5263655;28;20037;-82
2023/05/13 10:14:17;;;;;;;10.48;9.63;;;;;;;-145.79;52.55;77390.00;5262756;28;20103;-82
2023/05/13 10:16:52;;;;;;;10.90;9.90;;;;;;;-145.79;52.95;77385.75;5258031;28;20179;-82
2023/05/13 10:19:25;;;;;;;11.05;9.20;;;;;;;-145.79;51.92;77377.28;5262855;28;20073;-78
2023/05/13 10:21:57;;;;;;;10.82;9.30;;;;;;;-145.79;51.65;77356.06;5262656;28;20064;-76
2023/05/13 10:24:29;;;;;;;12.45;10.07;;;;;;;-145.79;52.08;77343.38;5261597;28;20025;-73
2023/05/13 10:27:05;;;;;;;11.02;8.43;;;;;;;-145.79;51.55;77345.47;5262266;28;20445;-76
2023/05/13 10:29:37;;;;;;;10.75;8.32;;;;;;;-145.79;49.91;77337.00;5263329;28;20021;-74
2023/05/13 10:32:09;;;;;;;9.15;8.23;;;;;;;-145.79;49.73;77330.66;5260853;28;20033;-77
2023/05/13 10:34:42;;;;;;;10.40;8.45;;;;;;;-145.79;50.63;77324.28;5251366;28;20406;-79
2023/05/13 10:37:56;;;;;;;9.10;8.18;;;;;;;-145.79;50.43;77298.84;5259546;28;20132;-79
2023/05/13 10:41:06;;;;;;;7.78;7.15;;;;;;;-145.79;49.17;77284.00;5238883;28;20061;-82
2023/05/13 10:43:38;;;;;;;9.32;8.35;;;;;;;-145.79;48.86;77275.53;5240507;28;20480;-82
2023/05/13 10:46:11;;;;;;;9.18;8.27;;;;;;;-145.79;49.98;77250.09;5252475;28;20104;-78
2023/05/13 10:48:47;;;;;;;8.32;6.57;;;;;;;-145.79;47.92;77245.84;5251372;28;20022;-81
2023/05/13 10:51:22;;;;;;;13.20;6.80;;;;;;;-145.79;48.09;77237.38;5245569;28;20504;-81
2023/05/13 10:53:55;;;;;;;;;;;;;;;-145.79;48.24;77226.78;5262955;28;20047;-81
2023/05/13 10:56:29;;;;;;;9.25;5.93;;;;;;;-145.79;46.97;77203.47;5263182;28;19920;-79
2023/05/13 10:59:04;;;;;;;7.38;6.65;;;;;;;-145.79;44.90;77207.72;5261649;28;20075;-78
2023/05/13 11:01:42;;;;;;;14.80;12.70;;;;;;;-145.79;44.70;77216.19;5260912;28;20017;-76
2023/05/13 11:04:19;;;;;;;6.88;6.05;;;;;;;-145.79;44.67;77190.75;5261843;28;20029;-77
2023/05/13 11:06:51;;;;;;;6.85;6.15;;;;;;;-145.79;45.31;77197.09;5261213;28;20127;-77
2023/05/13 11:09:22;;;;;;;6.80;5.68;;;;;;;-145.79;45.94;77171.69;5261581;28;20044;-76
2023/05/13 11:11:58;;;;;;;7.10;6.40;;;;;;;-145.79;44.82;77152.59;5261615;28;20061;-74
2023/05/13 11:14:30;;;;;;;6.47;5.70;;;;;;;-145.79;44.65;77150.47;5261607;28;20282;-78
2023/05/13 11:17:03;;;;;;;6.70;5.82;;;;;;;-145.79;44.40;77131.41;5261074;28;20449;-77
2023/05/13 11:19:37;;;;;;;11.48;5.53;;;;;;;-145.79;43.92;77127.16;5260789;28;20060;-78
2023/05/13 11:22:09;;;;;;;9.32;5.85;;;;;;;-145.79;43.05;77101.72;5260936;28;20110;-77
2023/05/13 11:24:44;;;;;;;8.15;4.70;;;;;;;-145.79;40.29;77114.44;5260906;28;20033;-76
2023/05/13 11:27:17;;;;;;;6.43;4.90;;;;;;;-145.79;41.39;77093.25;5262051;28;20028;-77
2023/05/13 11:29:49;;;;;;;7.78;4.70;;;;;;;-145.79;40.29;77080.53;5263439;28;20025;-76
2023/05/13 11:32:52;;;;;;;6.50;4.40;;;;;;;-145.79;38.56;77059.34;5264886;28;20052;-76
2023/05/13 11:35:28;;;;;;;5.22;4.47;;;;;;;-145.79;37.58;77050.88;5240611;28;20029;-73
2023/05/13 11:38:02;;;;;;;4.97;3.58;;;;;;;-145.79;38.34;77006.34;5240626;28;20061;-74
2023/05/13 11:40:35;;;;;;;6.45;4.25;;;;;;;-145.79;38.52;77012.72;5241929;28;20033;-75
2023/05/13 11:43:08;;;;;;;6.78;6.07;;;;;;;-145.79;38.36;77014.84;5239561;28;20041;-74
2023/05/13 11:45:39;;;;;;;6.50;4.80;;;;;;;-145.79;38.33;76985.16;5240694;28;20053;-80
2023/05/13 11:48:22;;;;;;;6.00;4.25;;;;;;;-145.79;38.19;77002.13;5243972;28;20018;-82
2023/05/13 11:50:55;;;;;;;5.82;4.78;;;;;;;-145.79;38.53;77033.91;5241399;28;20029;-82
2023/05/13 11:53:29;;;;;;;5.63;4.32;;;;;;;-145.79;36.98;77025.44;5250044;28;20025;-83
2023/05/13 11:56:09;;;;;;;6.03;3.55;;;;;;;-145.79;36.42;77012.72;5262839;28;20025;-81
2023/05/13 11:58:42;;;;;;;4.57;3.75;;;;;;;-145.79;34.64;77036.03;5248599;28;20127;-83
2023/05/13 12:01:13;;;;;;;5.43;3.88;;;;;;;-145.79;34.89;77004.25;5259527;28;20017;-81
2023/05/13 12:03:45;;;;;;;7.20;3.80;;;;;;;-145.79;34.61;77025.44;5261968;28;20040;-81
2023/05/13 12:06:17;;;;;;;6.55;3.90;;;;;;;-145.79;34.72;77012.72;5252023;28;20029;-83
2023/05/13 12:08:48;;;;;;;5.78;3.92;;;;;;;-145.79;33.70;76995.75;5249115;28;20108;-81
2023/05/13 12:11:19;;;;;;;15.10;12.25;;;;;;;-145.79;33.78;76983.03;5266206;28;20132;-79
2023/05/13 12:13:51;;;;;;;5.00;3.40;;;;;;;-145.79;33.21;76978.81;5259661;28;20519;-81
2023/05/13 12:16:23;;;;;;;4.28;3.88;;;;;;;-145.79;34.46;76966.09;5255364;28;20025;-80
2023/05/13 12:19:03;;;;;;;6.55;4.63;;;;;;;-145.79;34.96;76983.03;5265305;28;20028;-80
2023/05/13 12:21:34;;;;;;;5.85;4.00;;;;;;;-145.79;34.72;76993.63;5266655;28;20483;-78
2023/05/13 12:24:19;;;;;;;6.95;4.05;;;;;;;-145.79;35.17;76966.09;5266767;28;20017;-80
2023/05/13 12:26:50;;;;;;;9.07;3.60;;;;;;;-145.79;34.52;76944.91;5266011;28;20039;-81
2023/05/13 12:29:21;;;;;;;7.40;4.18;;;;;;;-145.79;33.60;76936.41;5274058;28;20041;-82
2023/05/13 12:32:04;;;;;;;6.32;5.72;;;;;;;-145.79;34.25;76915.22;5277630;28;20029;-83
2023/05/13 12:34:35;;;;;;;6.07;3.88;;;;;;;-145.79;33.68;76910.97;5279941;28;20035;-81
2023/05/13 12:37:11;;;;;;;4.90;3.83;;;;;;;-145.79;34.42;76902.50;5275029;28;20029;-81
2023/05/13 12:39:45;;;;;;;3.83;3.22;;;;;;;-145.79;33.72;76906.75;5277403;28;20029;-80
2023/05/13 12:42:17;;;;;;;5.68;3.95;;;;;;;-145.79;33.18;76887.66;5266932;28;20388;-81
2023/05/13 12:44:49;;;;;;;5.15;3.88;;;;;;;-145.79;32.67;76862.25;5265645;28;20040;-81
2023/05/13 12:47:22;;;;;;;10.32;9.27;;;;;;;-145.79;32.17;76851.63;5265366;28;20120;-79
2023/05/13 12:49:58;;;;;;;9.45;3.80;;;;;;;-145.79;32.29;76887.66;5260531;28;20013;-83
2023/05/13 12:52:29;;;;;;;6.28;3.33;;;;;;;-145.79;33.89;76919.47;5263911;28;20053;-82
2023/05/13 12:55:01;;;;;;;14.60;10.93;;;;;;;-145.79;33.04;76919.47;5240754;28;20017;-77
2023/05/13 12:57:32;;;;;;;5.88;4.00;;;;;;;-145.79;32.69;76902.50;5268863;28;20025;-79
2023/05/13 13:00:05;;;;;;;6.07;3.17;;;;;;;-145.79;32.38;76894.03;5254161;28;20024;-78
2023/05/13 13:02:39;;;;;;;5.57;3.40;;;;;;;-145.79;32.37;76866.47;5266584;28;20029;-74
2023/05/13 13:05:11;;;;;;;6.35;3.50;;;;;;;-145.79;31.95;76898.25;5262898;28;20029;-80
2023/05/13 13:07:42;;;;;;;4.80;3.58;;;;;;;-145.79;32.87;76919.47;5265942;28;20029;-84
2023/05/13 13:10:14;;;;;;;4.97;3.75;;;;;;;-145.79;32.38;76894.03;5266564;28;20498;-82
2023/05/13 13:12:47;;;;;;;7.35;4.07;;;;;;;-145.79;31.95;76877.06;5253827;28;20032;-82
2023/05/13 13:15:18;;;;;;;7.57;3.30;;;;;;;-145.79;32.63;76870.72;5260540;28;20018;-78
2023/05/13 13:17:49;;;;;;;4.95;3.53;;;;;;;-145.79;32.17;76860.13;5263532;28;20082;-84
2023/05/13 13:20:23;;;;;;;5.70;4.00;;;;;;;-145.79;31.30;76841.03;5262174;28;20136;-86
2023/05/13 13:22:54;;;;;;;5.93;4.10;;;;;;;-145.79;31.61;76832.56;5266018;28;20049;-84
2023/05/13 13:25:27;;;;;;;5.45;3.75;;;;;;;-145.79;31.19;76807.13;5265824;28;20108;-82
2023/05/13 13:27:58;;;;;;;3.90;3.50;;;;;;;-145.79;31.45;76788.06;5266442;28;20032;-84
2023/05/13 13:30:30;;;;;;;4.72;3.75;;;;;;;-145.79;31.46;76783.81;5265627;28;20021;-78
2023/05/13 13:33:01;;;;;;;6.68;3.58;;;;;;;-145.79;31.35;76749.91;5265138;28;20056;-79
2023/05/13 13:35:32;;;;;;;4.65;3.45;;;;;;;-145.79;31.86;76732.97;5264287;28;20036;-83
2023/05/13 13:38:04;;;;;;;5.25;3.45;;;;;;;-145.79;30.85;76741.44;5263862;28;20048;-80
2023/05/13 13:40:35;;;;;;;4.47;3.85;;;;;;;-145.79;31.45;76749.91;5254742;28;20024;-81
2023/05/13 13:43:07;;;;;;;5.10;3.70;;;;;;;-145.79;30.17;76762.63;5262213;28;20032;-81
2023/05/13 13:45:38;;;;;;;5.38;3.20;;;;;;;-145.79;30.07;76800.78;5263355;28;20039;-82
2023/05/13 13:48:10;;;;;;;4.13;3.55;;;;;;;-145.79;30.96;76779.59;5268990;28;20028;-82
2023/05/13 13:50:41;;;;;;;4.28;3.45;;;;;;;-145.79;31.42;76762.63;5258074;28;20017;-75
2023/05/13 13:53:12;;;;;;;5.60;3.33;;;;;;;-145.79;31.38;76756.28;5261042;28;20143;-76
2023/05/13 13:55:44;;;;;;;8.80;6.97;;;;;;;-145.79;31.10;76752.03;5257384;28;20042;-79
2023/05/13 13:58:16;;;;;;;8.50;6.28;;;;;;;-145.79;30.93;76737.19;5262964;28;20036;-79
2023/05/13 14:00:47;;;;;;;4.78;3.85;;;;;;;-145.79;30.89;76724.47;5263427;28;20021;-80
2023/05/13 14:03:18;;;;;;;4.88;3.25;;;;;;;-145.79;31.58;76694.81;5262094;28;20052;-78
2023/05/13 14:05:50;;;;;;;4.13;3.53;;;;;;;-145.79;31.67;76690.56;5273570;28;20027;-81
2023/05/13 14:08:22;;;;;;;5.40;3.45;;;;;;;-145.79;30.67;76694.81;5263134;28;20079;-81
2023/05/13 14:10:53;;;;;;;5.88;4.05;;;;;;;-145.79;30.62;76694.81;5243983;28;20029;-77
2023/05/13 14:13:24;;;;;;;6.78;3.63;;;;;;;-145.79;30.75;76663.03;5253824;28;20068;-79
2023/05/13 14:15:56;;;;;;;3.92;3.53;;;;;;;-145.79;30.23;76673.63;5253592;28;20039;-75
2023/05/13 14:18:27;;;;;;;4.65;3.25;;;;;;;-145.79;31.29;76656.66;5261991;28;20075;-77
2023/05/13 14:21:01;;;;;;;9.25;3.70;;;;;;;-145.79;30.54;76654.53;5256238;28;20028;-78
2023/05/13 14:23:32;;;;;;;5.25;3.65;;;;;;;-145.79;30.97;76699.06;5250855;28;20033;-79
2023/05/13 14:26:07;;;;;;;7.90;5.80;;;;;;;-145.79;31.13;76690.56;5244462;28;20401;-72
2023/05/13 14:28:38;;;;;;;6.95;3.70;;;;;;;-145.79;31.69;76690.56;5259104;28;20029;-75
2023/05/13 14:31:10;;;;;;;3.72;3.42;;;;;;;-145.79;30.83;76684.22;5255446;28;20107;-74
2023/05/13 14:33:45;;;;;;;6.25;4.05;;;;;;;-145.79;30.96;76669.38;5261109;28;20021;-72
2023/05/13 14:36:20;;;;;;;23.33;20.90;;;;;;;-145.79;30.90;76663.03;5262068;28;20027;-72
2023/05/13 14:38:52;;;;;;;6.18;4.30;;;;;;;-145.79;30.62;76663.03;5258804;28;20020;-71
2023/05/13 14:41:24;;;;;;;3.80;3.50;;;;;;;-145.79;30.17;76673.63;5256511;28;20436;-70
2023/05/13 14:43:55;;;;;;;9.23;7.18;;;;;;;-145.79;30.12;76663.03;5245344;28;20033;-71
2023/05/13 14:46:30;;;;;;;23.35;21.00;;;;;;;-145.79;29.92;76652.44;5257960;28;20025;-70
2023/05/13 14:49:01;;;;;;;13.57;12.27;;;;;;;-145.79;30.20;76660.91;5248226;28;20026;-70
2023/05/13 14:51:33;;;;;;;8.48;4.40;;;;;;;-145.79;30.48;76675.75;5250013;28;20028;-71
2023/05/13 14:54:04;;;;;;;9.77;8.38;;;;;;;-145.79;30.65;76682.09;5256194;28;20043;-71
2023/05/13 14:56:36;;;;;;;4.47;3.58;;;;;;;-145.79;31.12;76694.81;5258807;28;20035;-71
2023/05/13 14:59:08;;;;;;;6.63;4.57;;;;;;;-145.79;30.90;76720.25;5259807;28;20048;-70
2023/05/13 15:01:39;;;;;;;5.45;3.70;;;;;;;-145.79;31.22;76732.97;5253188;28;20053;-71
2023/05/13 15:04:10;;;;;;;4.25;3.85;;;;;;;-145.79;31.44;76732.97;5247432;28;20029;-70
2023/05/13 15:06:42;;;;;;;5.78;3.83;;;;;;;-145.79;31.60;76735.06;5240409;28;20060;-71
2023/05/13 15:09:17;;;;;;;4.60;3.80;;;;;;;-145.79;31.13;76737.19;5240816;28;20033;-71
2023/05/13 15:11:49;;;;;;;5.25;3.63;;;;;;;-145.79;31.45;76735.06;5239568;28;20021;-69
2023/05/13 15:14:24;;;;;;;8.15;6.35;;;;;;;-145.79;31.04;76732.97;5258949;28;20048;-70
2023/05/13 15:16:55;;;;;;;6.55;5.93;;;;;;;-145.79;31.39;76743.56;5260769;28;20094;-72
2023/05/13 15:19:27;;;;;;;5.13;4.60;;;;;;;-145.79;31.50;76737.19;5259829;28;20489;-71
2023/05/13 15:21:58;;;;;;;6.28;3.85;;;;;;;-145.79;31.05;76728.72;5258631;28;20106;-73
2023/05/13 15:24:29;;;;;;;4.10;3.60;;;;;;;-145.79;30.45;76724.47;5260725;28;20025;-73
2023/05/13 15:27:02;;;;;;;4.63;3.47;;;;;;;-145.79;29.95;76749.91;5247849;28;20051;-72
2023/05/13 15:29:33;;;;;;;5.88;3.13;;;;;;;-145.79;30.77;76752.03;5254201;28;20037;-73
2023/05/13 15:32:06;;;;;;;5.55;4.32;;;;;;;-145.79;30.48;76732.97;5251413;28;20407;-74
2023/05/13 15:34:37;;;;;;;5.32;4.72;;;;;;;-145.79;30.58;76743.56;5258391;28;20060;-74
2023/05/13 15:37:08;;;;;;;4.10;2.95;;;;;;;-145.79;30.43;76749.91;5254759;28;20130;-73
2023/05/13 15:39:39;;;;;;;9.25;5.57;;;;;;;-145.79;31.06;76728.72;5248511;28;20037;-74
2023/05/13 15:42:12;;;;;;;4.43;3.17;;;;;;;-145.79;30.57;76747.78;5260399;28;20127;-74
2023/05/13 15:44:44;;;;;;;5.32;3.05;;;;;;;-145.79;29.99;76739.31;5251381;28;20396;-74
2023/05/13 15:47:15;;;;;;;4.35;3.55;;;;;;;-145.79;30.76;76741.44;5254361;28;20549;-75
2023/05/13 15:49:50;;;;;;;6.85;3.15;;;;;;;-145.79;30.32;76728.72;5260323;28;20025;-73
2023/05/13 15:52:21;;;;;;;4.13;3.73;;;;;;;-145.79;30.10;76745.69;5264711;28;20071;-73
2023/05/13 15:54:52;;;;;;;6.47;5.07;;;;;;;-145.79;30.49;76707.53;5264922;28;20464;-73
2023/05/13 15:57:25;;;;;;;5.00;4.50;;;;;;;-145.79;30.89;76728.72;5258179;28;20124;-75
2023/05/13 15:59:56;;;;;;;4.78;4.35;;;;;;;-145.79;31.72;76716.00;5261590;28;20144;-76
2023/05/13 16:02:34;;;;;;;4.97;3.47;;;;;;;-145.79;30.65;76730.84;5259516;28;20112;-82
2023/05/13 16:05:06;;;;;;;5.10;3.58;;;;;;;-145.79;31.13;76728.72;5249601;28;20098;-82
2023/05/13 16:07:37;;;;;;;3.92;3.17;;;;;;;-145.79;30.96;76703.28;5263966;28;20025;-82
2023/05/13 16:10:09;;;;;;;4.53;3.30;;;;;;;-145.79;31.03;76716.00;5264886;28;20472;-80
2023/05/13 16:12:41;;;;;;;4.90;3.70;;;;;;;-145.79;30.54;76722.34;5254294;28;20029;-82
2023/05/13 16:15:13;;;;;;;6.53;3.72;;;;;;;-145.79;30.55;76724.47;5260641;28;20021;-79
2023/05/13 16:17:44;;;;;;;5.47;3.33;;;;;;;-145.79;30.70;76720.25;5263711;28;20028;-79
2023/05/13 16:20:18;;;;;;;5.93;4.00;;;;;;;-145.79;31.08;76741.44;5263473;28;20491;-80
2023/05/13 16:22:49;;;;;;;3.92;3.50;;;;;;;-145.79;30.97;76720.25;5254304;28;20052;-79
2023/05/13 16:25:21;;;;;;;4.28;3.60;;;;;;;-145.79;31.38;76724.47;5248507;28;20021;-79
2023/05/13 16:27:55;;;;;;;4.60;3.03;;;;;;;-145.79;30.56;76713.88;5253668;28;20074;-79
2023/05/13 16:30:26;;;;;;;7.47;5.45;;;;;;;-145.79;31.19;76713.88;5253606;28;20025;-79
2023/05/13 16:32:57;;;;;;;5.07;3.45;;;;;;;-145.79;30.53;76699.06;5261362;28;20025;-79
2023/05/13 16:35:29;;;;;;;5.80;3.88;;;;;;;-145.79;30.92;76707.53;5263948;28;20158;-79
2023/05/13 16:38:01;;;;;;;6.63;3.65;;;;;;;-145.79;31.38;76709.66;5262630;28;20025;-79
2023/05/13 16:40:32;;;;;;;9.50;5.03;;;;;;;-145.79;31.07;76694.81;5245306;28;20083;-79
2023/05/13 16:43:04;;;;;;;7.97;4.38;;;;;;;-145.79;31.24;76677.84;5262088;28;20028;-80
2023/05/13 16:45:35;;;;;;;4.40;3.00;;;;;;;-145.79;30.99;76667.25;5263970;28;20051;-80
2023/05/13 16:48:06;;;;;;;4.13;3.50;;;;;;;-145.79;30.43;76690.56;5263116;28;20029;-79
2023/05/13 16:50:39;;;;;;;7.22;3.90;;;;;;;-145.79;30.19;76675.75;5264529;28;20058;-79
2023/05/13 16:53:11;;;;;;;4.95;3.67;;;;;;;-145.79;30.40;76656.66;5257422;28;20032;-79
